Terminal Aerodrome Forecast
Issued by NWS Cleveland, OH

Home | Current Version | Previous Version | Text Only | Print | Product List | Glossary Off
Versions: 1 2 3 4 5 6 7 8 9 10 11 12 13 14 15 16 17 18 19 20

000
FTUS41 KCLE 021729
TAFYNG
TAF
KYNG 021729Z 0218/0318 25008KT P6SM SCT040
     FM030200 24005KT P6SM SCT250
      TEMPO 0311/0314 5SM BR
     FM031400 30005KT P6SM SCT060 BKN150=

USA.gov is the U.S. government's official web portal to all federal, state and local government web resources and services.